• Join FlightAware (Why Join?)
  • Login
  • US Flag 
11:59AM EDT


 

Airport Tracker/Info


-or-


 

Live Flight TrackerFlight Track Log ✈ AAL2360 ✈ 12-Jun-2013 ✈ KDFW - KORD

Flight Track Log - Related Links

Times and Time Zones

All times are in EDT time to prevent confusion due to time zone crossing. See the AAL2360 flight status page for this flight to view local times or setup timezone preferences in your user account.

Time Position Orientation Groundspeed Altitude Reporting Facility
EDT Latitude Longitude Course Direction KTS MPH feet Rate Location/Type
03:38PM 32.8833 -97.0333 357° North 176 203 1,200  Level Dallas / Fort Worth TRACON
03:40PM 32.8000 -97.0000 161° South 245 282 3,700 1,980 Climbing Dallas / Fort Worth TRACON
03:41PM 32.8510 -96.8000 North  Level FlightAware Approximate
03:41PM 32.7667 -96.9500 128° Southeast 267 307 5,900  Level Dallas / Fort Worth TRACON
03:42PM 32.9696 -96.8000 North  Level FlightAware Approximate
03:42PM 32.7667 -96.8500 90° East 308 354 8,300  Level Dallas / Fort Worth TRACON
03:43PM 33.0882 -96.8015 357° North  Level FlightAware Approximate
03:44PM 33.2066 -96.8100 357° North  Level FlightAware Approximate
03:44PM 32.9614 -96.8092 10° North 356 410 12,300  Level Fort Worth Center
03:45PM 33.0594 -96.8136 358° North 376 433 14,600 2,340 Climbing Fort Worth Center
03:46PM 33.1786 -96.8153 359° North 386 444 17,000 2,040 Climbing Fort Worth Center
03:47PM 33.2786 -96.8194 358° North 386 444 18,700 1,800 Climbing Fort Worth Center
03:48PM 33.4039 -96.8236 358° North 399 459 20,700 1,620 Climbing Fort Worth Center
03:49PM 33.5039 -96.7906 15° North 405 466 22,000 1,440 Climbing Fort Worth Center
03:50PM 33.6100 -96.7225 28° Northeast 416 479 23,600 1,500 Climbing Fort Worth Center
03:51PM 33.7142 -96.6544 29° Northeast 421 484 25,000 1,380 Climbing Fort Worth Center
03:52PM 33.8242 -96.5858 27° Northeast 427 491 26,400 1,380 Climbing Fort Worth Center
03:53PM 33.9322 -96.5147 29° Northeast 427 491 27,800 1,260 Climbing Fort Worth Center
03:54PM 34.0403 -96.4436 29° Northeast 427 491 29,000 1,020 Climbing Fort Worth Center
03:55PM 34.1503 -96.3569 33° Northeast 427 491 29,900 900 Climbing Fort Worth Center
03:56PM 34.2558 -96.2703 34° Northeast 427 491 30,900 1,020 Climbing Fort Worth Center
03:57PM 34.3594 -96.1883 33° Northeast 439 505 32,000 960 Climbing Fort Worth Center
03:58PM 34.4586 -96.1039 35° Northeast 439 505 32,900 480 Climbing Fort Worth Center
03:59PM 34.5600 -96.0217 34° Northeast 439 505 33,000  Climbing Fort Worth Center
04:00PM 34.6633 -95.9367 34° Northeast 439 505 33,000  Level Fort Worth Center
04:01PM 34.7625 -95.8514 35° Northeast 439 505 33,000  Level Fort Worth Center
04:02PM 34.8656 -95.7661 34° Northeast 439 505 33,000  Level Fort Worth Center
04:03PM 34.9644 -95.6706 38° Northeast 439 505 33,000  Level Fort Worth Center
04:04PM 35.0656 -95.5797 36° Northeast 444 511 33,000  Level Fort Worth Center
04:05PM 35.2014 -95.4544 37° Northeast 448 516 33,000  Level Memphis Center
04:06PM 35.2969 -95.3611 39° Northeast 448 516 33,000  Level Memphis Center
04:07PM 35.3944 -95.2700 37° Northeast 448 516 33,000  Level Memphis Center
04:08PM 35.4922 -95.1739 39° Northeast 448 516 33,000  Level Memphis Center
04:09PM 35.5875 -95.0825 38° Northeast 443 510 33,000  Level Memphis Center
04:10PM 35.6869 -94.9883 38° Northeast 443 510 33,000  Level Memphis Center
04:11PM 35.7842 -94.8914 39° Northeast 443 510 33,000  Level Memphis Center
04:12PM 35.8814 -94.7994 37° Northeast 443 510 33,000  Level Memphis Center
04:13PM 35.9764 -94.7044 39° Northeast 437 503 33,000  Level Memphis Center
04:14PM 36.0736 -94.6094 38° Northeast 437 503 33,000  Level Memphis Center
04:15PM 36.1706 -94.5169 38° Northeast 437 503 33,000  Level Memphis Center
04:16PM 36.2119 -94.4783 37° Northeast 443 510 33,000  Level Kansas City Center
04:17PM 36.3078 -94.3828 39° Northeast 443 510 33,000  Level Kansas City Center
04:18PM 36.4231 -94.2700 38° Northeast 442 509 33,000  Level Kansas City Center
04:19PM 36.5197 -94.1761 38° Northeast 441 507 33,000  Level Kansas City Center
04:20PM 36.6156 -94.0803 39° Northeast 442 509 33,000  Level Kansas City Center
04:21PM 36.7125 -93.9847 38° Northeast 442 509 33,000  Level Kansas City Center
04:22PM 36.8086 -93.8883 39° Northeast 443 510 33,000  Level Kansas City Center
04:23PM 36.9028 -93.7931 39° Northeast 438 504 33,000  Level Kansas City Center
04:24PM 37.0097 -93.6839 39° Northeast 438 504 33,000  Level Kansas City Center
04:25PM 37.1069 -93.5867 39° Northeast 442 509 33,000  Level Kansas City Center
04:26PM 37.2022 -93.4886 39° Northeast 443 510 33,000  Level Kansas City Center
04:27PM 37.3008 -93.3931 38° Northeast 445 512 33,000  Level Kansas City Center
04:28PM 37.4181 -93.2778 38° Northeast 445 512 33,000  Level Kansas City Center
04:29PM 37.5178 -93.1869 36° Northeast 443 510 33,000  Level Kansas City Center
04:30PM 37.6169 -93.0942 37° Northeast 442 509 33,000  Level Kansas City Center
04:31PM 37.7167 -93.0006 37° Northeast 443 510 33,000  Level Kansas City Center
04:32PM 37.8158 -92.9089 36° Northeast 441 507 33,000  Level Kansas City Center
04:33PM 37.9153 -92.8158 36° Northeast 441 507 33,000  Level Kansas City Center
04:35PM 38.0142 -92.7228 37° Northeast 442 509 33,000  Level Kansas City Center
04:36PM 38.1125 -92.6292 37° Northeast 443 510 33,000  Level Kansas City Center
04:37PM 38.2361 -92.5119 37° Northeast 443 510 33,000  Level Kansas City Center
04:38PM 38.3369 -92.4172 36° Northeast 445 512 33,000  Level Kansas City Center
04:39PM 38.4356 -92.3217 37° Northeast 443 510 33,000  Level Kansas City Center
04:40PM 38.5361 -92.2258 37° Northeast 446 513 33,000  Level Kansas City Center
04:41PM 38.6394 -92.1253 37° Northeast 458 527 33,000  Level Kansas City Center
04:42PM 38.7439 -92.0258 37° Northeast 464 534 33,000  Level Kansas City Center
04:43PM 38.8478 -91.9250 37° Northeast 466 536 33,000  Level Kansas City Center
04:44PM 38.9519 -91.8250 37° Northeast 467 537 33,000  Level Kansas City Center
04:45PM 39.0786 -91.7028 37° Northeast 471 542 33,000  Level Kansas City Center
04:46PM 39.1739 -91.6097 37° Northeast 471 542 33,000  Level Kansas City Center
04:47PM 39.2800 -91.5067 37° Northeast 474 545 33,000  Level Kansas City Center
04:48PM 39.3872 -91.4006 37° Northeast 481 554 33,000  Level Kansas City Center
04:49PM 39.5156 -91.2739 37° Northeast 482 555 33,000  Level Kansas City Center
04:50PM 39.6222 -91.1681 37° Northeast 482 555 33,000  Level Kansas City Center
04:51PM 39.7278 -91.0628 37° Northeast 480 552 33,000  Level Kansas City Center
04:52PM 39.8244 -90.9631 38° Northeast 482 555 33,000  Level Kansas City Center
04:53PM 39.9536 -90.8358 37° Northeast 482 555 33,000  Level Kansas City Center
04:54PM 40.0619 -90.7261 38° Northeast 489 563 33,000  Level Kansas City Center
04:55PM 40.1686 -90.6167 38° Northeast 488 562 33,000  Level Kansas City Center
04:56PM 40.2767 -90.5067 38° Northeast 491 565 33,000  Level Kansas City Center
04:57PM 40.3844 -90.3964 38° Northeast 490 564 33,000  Level Kansas City Center
04:58PM 40.4278 -90.3522 38° Northeast 493 567 33,000  Level Chicago Center
04:59PM 40.5092 -90.2086 53° Northeast 500 575 33,000 -240 Level Chicago Center
05:00PM 40.5364 -89.9919 81° East 502 578 32,600 -1,080 Descending Chicago Center
05:01PM 40.6208 -89.8511 52° Northeast 500 575 30,800 -1,800 Descending Chicago Center
05:02PM 40.7167 -89.7219 46° Northeast 495 570 28,900 -1,860 Descending Chicago Center
05:03PM 40.8081 -89.5986 46° Northeast 479 551 27,000 -2,040 Descending Chicago Center
05:04PM 40.9033 -89.4644 47° Northeast 445 512 24,800 -1,860 Descending Chicago Center
05:05PM 40.9864 -89.3481 47° Northeast 437 503 23,200 -1,800 Descending Chicago Center
05:06PM 41.0675 -89.2317 47° Northeast 430 495 21,200 -2,040 Descending Chicago Center
05:07PM 41.1531 -89.1114 47° Northeast 425 489 19,100 -2,160 Descending Chicago Center
05:08PM 41.2308 -88.9994 47° Northeast 416 479 16,800 -1,980 Descending Chicago Center
05:09PM 41.2989 -88.8961 49° Northeast 379 436 15,100 -1,680 Descending Chicago Center
05:10PM 41.3694 -88.7961 47° Northeast 373 429 13,400 -1,800 Descending Chicago Center
05:11PM 41.4497 -88.6783 48° Northeast 361 415 11,400 -1,200 Descending Chicago Center
05:12PM 41.5150 -88.5817 48° Northeast 350 403 11,000 -240 Descending Chicago Center
05:13PM 41.5547 -88.4747 64° Northeast 334 384 11,000 -720 Level Chicago Center
05:14PM 41.5786 -88.3533 75° East 338 389 9,600 -1,140 Descending Chicago Center
05:15PM 41.6403 -88.2658 47° Northeast 324 373 8,700 -1,020 Descending Chicago Center
05:16PM 41.7092 -88.1867 41° Northeast 325 374 7,500 -1,260 Descending Chicago Center
05:17PM 41.7853 -88.0961 42° Northeast 302 348 6,100 -1,380 Descending Chicago Center